Time;durP1;ratioP1;P1;durP2;ratioP2;P2;SDS_P1;SDS_P2;PMS_P1;PMS_P2;Temp;Humidity;BMP_temperature;BMP_pressure;BME280_temperature;BME280_humidity;BME280_pressure;Samples;Min_cycle;Max_cycle;Signal;HPM_P1;HPM_P2
2021/11/16 00:00:51;;;;;;;11.90;8.00;;;7.90;99.90;;;;;;5034800;28;20243;-72
2021/11/16 00:03:17;;;;;;;14.45;9.05;;;7.90;99.90;;;;;;5034254;28;20450;-71
2021/11/16 00:05:43;;;;;;;14.30;9.03;;;7.90;99.90;;;;;;5034254;28;20205;-70
2021/11/16 00:08:09;;;;;;;11.90;8.77;;;7.90;99.90;;;;;;5034149;28;20232;-72
2021/11/16 00:10:36;;;;;;;9.88;8.65;;;7.80;99.90;;;;;;5033227;28;20421;-71
2021/11/16 00:13:04;;;;;;;12.02;8.30;;;7.80;99.90;;;;;;5034574;28;20649;-71
2021/11/16 00:15:30;;;;;;;13.20;9.38;;;7.80;99.90;;;;;;5014643;28;20214;-70
2021/11/16 00:17:56;;;;;;;16.60;10.60;;;7.90;99.90;;;;;;5014521;28;20186;-72
2021/11/16 00:20:22;;;;;;;17.97;11.53;;;7.80;99.90;;;;;;5034525;28;20545;-70
2021/11/16 00:22:48;;;;;;;14.68;9.13;;;7.90;99.90;;;;;;5034693;28;20412;-71
2021/11/16 00:27:43;;;;;;;17.15;10.45;;;7.80;99.90;;;;;;5034007;28;20201;-71
2021/11/16 00:30:10;;;;;;;12.07;7.00;;;7.90;99.90;;;;;;5034267;28;20537;-71
2021/11/16 00:32:36;;;;;;;13.23;8.98;;;7.90;99.90;;;;;;5034395;28;20192;-71
2021/11/16 00:35:03;;;;;;;13.77;9.57;;;7.80;99.90;;;;;;5034414;28;20169;-71
2021/11/16 00:37:29;;;;;;;16.95;7.80;;;7.90;99.90;;;;;;5033499;28;20184;-72
2021/11/16 00:39:59;;;;;;;17.00;9.13;;;7.80;99.90;;;;;;5034009;28;20181;-71
2021/11/16 00:42:26;;;;;;;15.00;8.65;;;7.80;99.90;;;;;;5034262;28;20661;-72
2021/11/16 00:44:52;;;;;;;12.27;8.30;;;7.80;99.90;;;;;;5033969;28;20189;-71
2021/11/16 00:47:19;;;;;;;22.20;9.20;;;7.90;99.90;;;;;;5033506;28;20194;-71
2021/11/16 00:49:45;;;;;;;16.42;8.43;;;7.80;99.90;;;;;;5034065;28;20174;-69
2021/11/16 00:52:11;;;;;;;15.82;9.60;;;7.90;99.90;;;;;;5034199;28;20696;-70
2021/11/16 00:54:38;;;;;;;15.98;9.18;;;7.90;99.90;;;;;;5033814;28;20173;-71
2021/11/16 00:57:05;;;;;;;14.20;7.82;;;7.90;99.90;;;;;;5033510;28;20224;-70
2021/11/16 00:59:31;;;;;;;20.05;7.82;;;7.90;99.90;;;;;;5033684;28;20554;-71
2021/11/16 01:01:57;;;;;;;13.05;7.22;;;7.90;99.90;;;;;;5033457;28;20204;-70
2021/11/16 01:04:26;;;;;;;13.48;7.38;;;7.80;99.90;;;;;;5033491;28;20173;-74
2021/11/16 01:06:52;;;;;;;16.02;9.00;;;7.80;99.90;;;;;;5032641;28;20173;-72
2021/11/16 01:09:17;;;;;;;18.67;9.60;;;7.90;99.90;;;;;;5044370;28;20195;-72
2021/11/16 01:11:43;;;;;;;17.40;9.20;;;7.90;99.90;;;;;;5053204;28;20529;-70
2021/11/16 01:14:09;;;;;;;11.37;8.53;;;7.90;99.90;;;;;;5044173;28;20174;-71
2021/11/16 01:16:35;;;;;;;13.13;8.00;;;7.90;99.90;;;;;;5033423;28;20245;-70
2021/11/16 01:19:02;;;;;;;18.03;9.43;;;7.90;99.90;;;;;;5033400;28;20193;-71
2021/11/16 01:21:27;;;;;;;16.15;8.95;;;7.90;99.90;;;;;;5033519;28;20412;-70
2021/11/16 01:23:53;;;;;;;16.93;8.17;;;7.80;99.90;;;;;;5033259;28;20169;-71
2021/11/16 01:26:19;;;;;;;13.60;8.23;;;7.80;99.90;;;;;;5033307;28;20263;-73
2021/11/16 01:28:45;;;;;;;13.47;8.13;;;7.80;99.90;;;;;;5033674;28;20273;-72
2021/11/16 01:31:10;;;;;;;14.03;8.00;;;7.80;99.90;;;;;;5033886;28;20171;-73
2021/11/16 01:33:53;;;;;;;14.00;9.43;;;7.80;99.90;;;;;;5033373;28;20967;-72
2021/11/16 01:36:19;;;;;;;14.20;8.68;;;7.90;99.90;;;;;;5032715;28;20169;-70
2021/11/16 01:38:45;;;;;;;14.47;9.30;;;7.80;99.90;;;;;;5032929;28;20192;-70
2021/11/16 01:41:11;;;;;;;16.27;8.20;;;7.80;99.90;;;;;;5033059;28;20170;-72
2021/11/16 01:43:38;;;;;;;13.20;10.40;;;7.80;99.90;;;;;;5033231;28;20275;-69
2021/11/16 01:46:08;;;;;;;13.95;8.73;;;7.80;99.90;;;;;;5033144;28;20404;-74
2021/11/16 01:48:35;;;;;;;15.27;7.40;;;7.70;99.90;;;;;;5032631;28;20205;-70
2021/11/16 01:51:01;;;;;;;15.60;9.50;;;7.70;99.90;;;;;;5032838;28;20226;-73
2021/11/16 01:53:28;;;;;;;13.93;8.27;;;7.80;99.90;;;;;;5033085;28;20201;-70
2021/11/16 01:55:54;;;;;;;12.00;7.38;;;7.80;99.90;;;;;;5033414;28;20204;-72
2021/11/16 01:58:19;;;;;;;11.23;7.30;;;7.70;99.90;;;;;;5032621;28;20594;-69
2021/11/16 02:00:48;;;;;;;14.53;9.93;;;7.70;99.90;;;;;;5032581;28;20421;-71
2021/11/16 02:03:14;;;;;;;8.85;7.03;;;7.70;99.90;;;;;;5032964;28;20252;-70
2021/11/16 02:05:43;;;;;;;14.00;7.30;;;7.70;99.90;;;;;;5032297;28;20535;-72
2021/11/16 02:08:11;;;;;;;17.00;9.73;;;7.70;99.90;;;;;;5032104;28;20229;-72
2021/11/16 02:10:39;;;;;;;16.98;8.65;;;7.70;99.90;;;;;;5032626;28;20213;-71
2021/11/16 02:13:05;;;;;;;19.33;8.80;;;7.70;99.90;;;;;;5032302;28;20166;-71
2021/11/16 02:15:32;;;;;;;11.87;9.07;;;7.70;99.90;;;;;;5032452;28;20677;-72
2021/11/16 02:17:58;;;;;;;16.27;8.68;;;7.60;99.90;;;;;;5032128;28;20827;-70
2021/11/16 02:20:30;;;;;;;11.90;9.63;;;7.60;99.90;;;;;;5032690;28;20178;-69
2021/11/16 02:22:56;;;;;;;13.88;9.77;;;7.70;99.90;;;;;;5036555;28;20173;-71
2021/11/16 02:25:22;;;;;;;12.70;8.47;;;7.70;99.90;;;;;;5036489;28;20280;-69
2021/11/16 02:27:49;;;;;;;13.40;8.97;;;7.70;99.90;;;;;;5036084;28;20231;-71
2021/11/16 02:30:14;;;;;;;13.20;5.90;;;7.70;99.90;;;;;;5035984;28;20166;-71
2021/11/16 02:32:43;;;;;;;16.20;7.67;;;7.70;99.90;;;;;;5036007;28;20177;-72
2021/11/16 02:35:09;;;;;;;16.00;9.40;;;7.70;99.90;;;;;;5034929;28;20180;-73
2021/11/16 02:37:35;;;;;;;16.63;10.33;;;7.70;99.90;;;;;;5036001;28;20232;-74
2021/11/16 02:40:01;;;;;;;13.23;8.03;;;7.70;99.90;;;;;;5036451;28;20562;-70
2021/11/16 02:42:29;;;;;;;17.65;9.25;;;7.70;99.90;;;;;;5036371;28;20256;-72
2021/11/16 02:44:54;;;;;;;16.27;9.00;;;7.70;99.90;;;;;;5036500;28;20287;-71
2021/11/16 02:47:20;;;;;;;12.87;7.60;;;;;;;;;;5035770;28;20455;-71
2021/11/16 02:49:46;;;;;;;21.38;10.43;;;7.70;99.90;;;;;;5036242;28;20397;-71
2021/11/16 02:52:14;;;;;;;16.27;8.37;;;7.70;99.90;;;;;;5036186;28;20626;-70
2021/11/16 02:54:39;;;;;;;13.80;10.50;;;7.70;99.90;;;;;;5035890;28;20181;-72
2021/11/16 02:57:07;;;;;;;10.67;9.27;;;7.60;99.90;;;;;;5035695;28;20527;-71
2021/11/16 02:59:33;;;;;;;10.68;7.00;;;7.60;99.90;;;;;;5036044;28;20629;-71
2021/11/16 03:01:59;;;;;;;14.60;8.97;;;;;;;;;;5035442;28;20173;-70
2021/11/16 03:04:24;;;;;;;13.80;7.67;;;7.50;99.90;;;;;;5036298;28;20626;-72
2021/11/16 03:06:50;;;;;;;12.90;7.87;;;7.60;99.90;;;;;;5035262;28;20483;-70
2021/11/16 03:09:16;;;;;;;14.77;7.47;;;7.60;99.90;;;;;;5035594;28;20202;-70
2021/11/16 03:11:41;;;;;;;19.63;7.60;;;7.60;99.90;;;;;;5035818;28;20611;-69
2021/11/16 03:14:07;;;;;;;11.53;8.00;;;7.60;99.90;;;;;;5034222;28;20178;-73
2021/11/16 03:16:33;;;;;;;10.27;6.87;;;7.60;99.90;;;;;;5035291;28;20264;-70
2021/11/16 03:19:00;;;;;;;14.43;7.45;;;7.60;99.90;;;;;;5017446;28;20194;-72
2021/11/16 03:21:27;;;;;;;11.13;6.47;;;7.60;99.90;;;;;;5035421;28;20173;-71
2021/11/16 03:23:55;;;;;;;12.52;7.55;;;7.50;99.90;;;;;;5035670;28;20560;-70
2021/11/16 03:26:23;;;;;;;12.52;8.18;;;7.50;99.90;;;;;;5033531;28;20182;-70
2021/11/16 03:28:51;;;;;;;10.07;7.88;;;7.60;99.90;;;;;;5034906;28;20204;-71
2021/11/16 03:33:53;;;;;;;10.35;7.28;;;7.60;99.90;;;;;;5034159;28;20192;-70
2021/11/16 03:36:20;;;;;;;11.10;7.60;;;7.60;99.90;;;;;;5034889;28;20180;-73
2021/11/16 03:38:48;;;;;;;7.88;6.93;;;7.60;99.90;;;;;;5017225;28;20193;-71
2021/11/16 03:41:15;;;;;;;12.65;7.43;;;7.60;99.90;;;;;;5035018;28;20235;-71
2021/11/16 03:43:41;;;;;;;12.25;7.18;;;7.50;99.90;;;;;;5035249;28;20174;-70
2021/11/16 03:46:07;;;;;;;14.88;7.55;;;7.60;99.90;;;;;;5035093;28;20638;-71
2021/11/16 03:48:33;;;;;;;13.07;8.48;;;7.50;99.90;;;;;;5034517;28;20203;-71
2021/11/16 03:50:59;;;;;;;9.83;6.93;;;7.40;99.90;;;;;;5034808;28;20567;-73
2021/11/16 03:53:25;;;;;;;11.33;7.20;;;7.40;99.90;;;;;;5035110;28;20168;-71
2021/11/16 03:55:51;;;;;;;11.32;7.35;;;7.50;99.90;;;;;;5035266;28;20169;-72
2021/11/16 03:58:20;;;;;;;10.23;7.00;;;7.50;99.90;;;;;;5034506;28;20192;-72
2021/11/16 04:00:54;;;;;;;9.13;5.95;;;7.50;99.90;;;;;;5034934;28;20174;-72
2021/11/16 04:03:23;;;;;;;6.75;5.78;;;7.60;99.90;;;;;;5034763;28;20251;-70
2021/11/16 04:05:48;;;;;;;12.75;5.80;;;7.50;99.90;;;;;;5034580;28;20220;-71
2021/11/16 04:08:14;;;;;;;7.37;5.97;;;7.50;99.90;;;;;;5034269;28;20206;-71
2021/11/16 04:10:41;;;;;;;11.73;6.13;;;7.50;99.90;;;;;;5034804;28;20169;-71
2021/11/16 04:13:06;;;;;;;13.98;6.90;;;7.40;99.90;;;;;;5034434;28;20170;-72
2021/11/16 04:15:33;;;;;;;9.40;7.90;;;7.70;99.90;;;;;;5034401;28;20196;-71
2021/11/16 04:17:59;;;;;;;13.65;7.85;;;7.40;99.90;;;;;;5034062;28;20485;-71
2021/11/16 04:20:35;;;;;;;13.30;7.45;;;7.40;99.90;;;;;;5034551;28;20173;-71
2021/11/16 04:23:03;;;;;;;12.43;8.40;;;7.30;99.90;;;;;;5034716;28;20176;-72
2021/11/16 04:25:31;;;;;;;14.30;8.13;;;7.40;99.90;;;;;;5034944;28;20177;-72
2021/11/16 04:27:57;;;;;;;12.73;7.93;;;7.40;99.90;;;;;;5033902;28;20202;-71
2021/11/16 04:30:25;;;;;;;15.07;8.40;;;7.40;99.90;;;;;;5034450;28;20172;-70
2021/11/16 04:32:50;;;;;;;12.82;7.53;;;7.40;99.90;;;;;;5034408;28;20561;-72
2021/11/16 04:35:17;;;;;;;6.90;5.83;;;7.30;99.90;;;;;;5016329;28;20238;-71
2021/11/16 04:37:44;;;;;;;16.70;7.45;;;7.30;99.90;;;;;;5033555;28;20440;-71
2021/11/16 04:40:14;;;;;;;14.90;9.18;;;7.30;99.90;;;;;;5034231;28;20228;-70
2021/11/16 04:42:41;;;;;;;16.52;9.30;;;7.30;99.90;;;;;;5033989;28;20192;-71
2021/11/16 04:45:10;;;;;;;9.65;7.15;;;7.30;99.90;;;;;;5034081;28;20170;-71
2021/11/16 04:47:51;;;;;;;13.45;7.70;;;7.20;99.90;;;;;;5032211;28;20681;-72
2021/11/16 04:51:09;;;;;;;17.83;8.57;;;7.30;99.90;;;;;;5033698;28;20188;-71
2021/11/16 05:03:47;;;;;;;14.73;7.68;;;7.40;99.90;;;;;;5012376;28;20257;-70
2021/11/16 05:06:13;;;;;;;11.17;8.33;;;7.30;99.90;;;;;;5032423;28;20176;-70
2021/11/16 05:08:44;;;;;;;8.65;6.95;;;7.20;99.90;;;;;;5033234;28;20622;-71
2021/11/16 05:11:11;;;;;;;14.05;8.77;;;7.30;99.90;;;;;;5033697;28;20161;-70
2021/11/16 05:13:37;;;;;;;14.05;8.02;;;7.20;99.90;;;;;;5033505;28;20176;-70
2021/11/16 05:16:04;;;;;;;17.13;8.82;;;7.20;99.90;;;;;;5033464;28;20722;-70
2021/11/16 05:18:30;;;;;;;12.23;6.22;;;7.20;99.90;;;;;;5033061;28;20198;-70
2021/11/16 05:20:56;;;;;;;14.90;7.60;;;7.20;99.90;;;;;;5033027;28;20191;-71
2021/11/16 05:23:22;;;;;;;13.17;8.47;;;7.20;99.90;;;;;;5033531;28;20176;-69
2021/11/16 05:25:52;;;;;;;14.63;8.23;;;7.10;99.90;;;;;;5032226;28;20588;-71
2021/11/16 05:28:20;;;;;;;13.52;8.15;;;7.10;99.90;;;;;;5032761;28;20302;-70
2021/11/16 05:30:47;;;;;;;14.70;7.28;;;7.20;99.90;;;;;;5033189;28;20183;-72
2021/11/16 05:33:13;;;;;;;10.57;6.88;;;7.20;99.90;;;;;;5033261;28;20196;-72
2021/11/16 05:35:39;;;;;;;11.23;6.87;;;7.20;99.90;;;;;;5033451;28;20589;-71
2021/11/16 05:38:04;;;;;;;10.53;7.90;;;7.20;99.90;;;;;;5032710;28;20427;-71
2021/11/16 05:40:31;;;;;;;10.10;7.00;;;7.10;99.90;;;;;;5015397;28;20181;-71
2021/11/16 05:42:57;;;;;;;14.20;7.28;;;7.10;99.90;;;;;;5033169;28;20706;-72
2021/11/16 05:45:23;;;;;;;15.17;8.83;;;7.10;99.90;;;;;;5033236;28;20207;-69
2021/11/16 05:47:53;;;;;;;15.13;10.83;;;7.10;99.90;;;;;;5032622;28;20212;-72
2021/11/16 05:50:19;;;;;;;16.92;8.70;;;7.00;99.90;;;;;;5015003;28;20278;-72
2021/11/16 05:52:45;;;;;;;11.43;7.50;;;7.00;99.90;;;;;;5031953;28;20203;-72
2021/11/16 05:55:11;;;;;;;17.13;8.50;;;7.10;99.90;;;;;;5033796;28;20172;-70
2021/11/16 05:57:37;;;;;;;16.02;8.20;;;7.10;99.90;;;;;;5038857;28;20437;-71
2021/11/16 06:00:06;;;;;;;11.13;8.00;;;7.10;99.90;;;;;;5039485;28;20208;-69
2021/11/16 06:02:32;;;;;;;12.18;7.60;;;7.10;99.90;;;;;;5039638;28;20430;-71
2021/11/16 06:04:57;;;;;;;13.80;8.67;;;7.10;99.90;;;;;;5037735;28;20540;-70
2021/11/16 06:07:23;;;;;;;8.87;6.87;;;7.10;99.90;;;;;;5038976;28;20618;-71
2021/11/16 06:09:49;;;;;;;17.43;8.10;;;7.00;99.90;;;;;;5039487;28;20173;-73
2021/11/16 06:12:14;;;;;;;9.60;7.87;;;7.10;99.90;;;;;;5039534;28;20235;-69
2021/11/16 06:14:40;;;;;;;14.27;8.43;;;7.10;99.90;;;;;;5037665;28;20184;-69
2021/11/16 06:17:06;;;;;;;11.60;5.93;;;7.10;99.90;;;;;;5037959;28;20176;-71
2021/11/16 06:19:36;;;;;;;15.50;8.13;;;7.00;99.90;;;;;;5038236;28;20270;-71
2021/11/16 06:22:04;;;;;;;12.38;7.57;;;7.00;99.90;;;;;;5038763;28;20664;-67
2021/11/16 06:24:30;;;;;;;17.98;5.90;;;7.00;99.90;;;;;;5039135;28;20176;-66
2021/11/16 06:26:56;;;;;;;18.80;8.90;;;7.00;99.90;;;;;;5038624;28;20170;-66
2021/11/16 06:29:21;;;;;;;18.07;9.83;;;7.00;99.90;;;;;;5039132;28;20990;-68
2021/11/16 06:31:47;;;;;;;16.87;8.80;;;7.00;99.90;;;;;;5038935;28;20427;-66
2021/11/16 06:34:13;;;;;;;13.50;6.63;;;7.00;99.90;;;;;;5036359;28;20406;-64
2021/11/16 06:36:41;;;;;;;12.80;6.47;;;7.00;99.90;;;;;;5036645;28;20632;-65
2021/11/16 06:39:13;;;;;;;13.30;7.10;;;7.00;99.90;;;;;;5036306;28;20211;-68
2021/11/16 06:41:40;;;;;;;14.82;8.45;;;7.00;99.90;;;;;;5036958;28;20333;-65
2021/11/16 06:44:11;;;;;;;11.90;7.60;;;7.10;99.90;;;;;;5038879;28;20601;-66
2021/11/16 06:46:38;;;;;;;11.73;7.97;;;7.00;99.90;;;;;;5038503;28;20537;-65
2021/11/16 06:49:07;;;;;;;16.50;7.32;;;7.00;99.90;;;;;;5038712;28;20204;-65
2021/11/16 06:51:37;;;;;;;15.88;6.88;;;7.00;99.90;;;;;;5039030;28;20162;-66
2021/11/16 06:54:08;;;;;;;16.73;8.70;;;6.90;99.90;;;;;;5039260;28;20196;-67
2021/11/16 06:56:34;;;;;;;9.82;8.15;;;7.00;99.90;;;;;;5038980;28;20671;-65
2021/11/16 06:59:00;;;;;;;12.85;7.57;;;7.00;99.90;;;;;;5039243;28;20568;-66
2021/11/16 07:01:27;;;;;;;15.17;7.63;;;7.00;99.90;;;;;;5040095;28;20176;-67
2021/11/16 07:03:53;;;;;;;14.85;7.45;;;7.10;99.90;;;;;;5044726;28;20169;-69
2021/11/16 07:06:25;;;;;;;14.00;6.17;;;7.00;99.90;;;;;;5044543;28;20649;-65
2021/11/16 07:08:54;;;;;;;14.20;8.68;;;7.00;99.90;;;;;;5041426;28;20456;-66
2021/11/16 07:11:22;;;;;;;13.90;9.50;;;7.00;99.90;;;;;;5042106;28;20232;-66
2021/11/16 07:14:04;;;;;;;17.33;6.85;;;7.00;99.90;;;;;;5042203;28;20176;-66
2021/11/16 07:16:39;;;;;;;11.57;7.25;;;7.00;99.90;;;;;;5041665;28;20206;-67
2021/11/16 07:19:08;;;;;;;9.57;5.63;;;7.10;99.90;;;;;;5023655;28;20189;-68
2021/11/16 07:21:49;;;;;;;9.75;7.57;;;7.10;99.90;;;;;;5034702;28;20175;-65
2021/11/16 07:24:19;;;;;;;15.13;7.53;;;7.10;99.90;;;;;;5034512;28;20574;-66
2021/11/16 07:26:55;;;;;;;13.05;6.88;;;7.10;99.90;;;;;;5034887;28;20577;-66
2021/11/16 07:29:30;;;;;;;10.23;6.55;;;7.10;99.90;;;;;;5035565;28;20200;-68
2021/11/16 07:31:56;;;;;;;13.75;7.35;;;7.10;99.90;;;;;;5035716;28;20608;-66
2021/11/16 07:34:22;;;;;;;10.48;5.25;;;7.20;99.90;;;;;;5035409;28;20248;-68
2021/11/16 07:37:10;;;;;;;13.93;6.90;;;7.20;99.90;;;;;;5035119;28;20625;-65
2021/11/16 07:39:55;;;;;;;10.05;6.28;;;7.20;99.90;;;;;;5035327;28;20187;-67
2021/11/16 07:42:24;;;;;;;10.93;6.65;;;7.20;99.90;;;;;;5035492;28;20571;-68
2021/11/16 07:44:59;;;;;;;7.18;5.05;;;7.20;99.90;;;;;;5035452;28;20536;-64
2021/11/16 07:47:49;;;;;;;9.57;6.07;;;7.30;99.90;;;;;;5034672;28;20202;-67
2021/11/16 07:50:29;;;;;;;8.48;6.32;;;7.30;99.90;;;;;;5035257;28;20248;-64
2021/11/16 07:53:07;;;;;;;10.82;7.72;;;7.30;99.90;;;;;;5035392;28;20175;-65
2021/11/16 07:55:33;;;;;;;12.63;6.75;;;7.40;99.90;;;;;;5035283;28;20169;-67
2021/11/16 07:58:07;;;;;;;9.80;5.17;;;7.30;99.90;;;;;;5034684;28;20197;-67
2021/11/16 08:00:34;;;;;;;10.25;7.03;;;7.30;99.90;;;;;;5035107;28;20176;-66
2021/11/16 08:03:13;;;;;;;11.13;7.30;;;7.30;99.90;;;;;;5035243;28;20173;-66
2021/11/16 08:06:14;;;;;;;8.38;4.95;;;7.30;99.90;;;;;;5034928;28;20188;-64
2021/11/16 08:14:00;;;;;;;10.60;7.15;;;7.40;99.90;;;;;;5034732;28;20650;-66
2021/11/16 08:16:28;;;;;;;8.15;4.40;;;7.40;99.90;;;;;;5034267;28;20174;-65
2021/11/16 08:19:05;;;;;;;12.95;8.25;;;7.40;99.90;;;;;;5016133;28;20693;-67
2021/11/16 08:21:32;;;;;;;12.60;7.10;;;7.40;99.90;;;;;;5034450;28;20229;-65
2021/11/16 08:24:02;;;;;;;14.45;7.30;;;7.40;99.90;;;;;;5034503;28;20178;-68
2021/11/16 08:26:34;;;;;;;10.13;5.78;;;7.40;99.90;;;;;;5034236;28;20479;-66
2021/11/16 08:29:01;;;;;;;4.97;3.67;;;7.50;99.90;;;;;;5034061;28;20206;-69
2021/11/16 08:31:34;;;;;;;13.63;5.63;;;7.60;99.90;;;;;;5034727;28;20167;-65
2021/11/16 08:34:00;;;;;;;9.38;5.45;;;7.50;99.90;;;;;;5034730;28;20253;-67
2021/11/16 08:36:29;;;;;;;12.13;6.57;;;7.50;99.90;;;;;;5016257;28;20273;-65
2021/11/16 08:38:56;;;;;;;13.68;6.05;;;7.50;99.90;;;;;;5034322;28;20336;-67
2021/11/16 08:41:31;;;;;;;5.95;4.68;;;7.50;99.90;;;;;;5034183;28;20173;-66
2021/11/16 08:44:22;;;;;;;7.10;4.95;;;7.50;99.90;;;;;;5016355;28;20169;-66
2021/11/16 08:46:50;;;;;;;9.57;4.68;;;7.50;99.90;;;;;;5033828;28;20718;-64
2021/11/16 08:49:33;;;;;;;7.70;5.00;;;7.50;99.90;;;;;;5033954;28;20298;-68
2021/11/16 08:52:03;;;;;;;6.45;4.45;;;7.50;99.90;;;;;;5034126;28;20552;-64
2021/11/16 08:54:35;;;;;;;10.10;5.88;;;7.50;99.90;;;;;;5034282;28;20173;-66
2021/11/16 08:57:14;;;;;;;12.32;5.95;;;7.60;99.90;;;;;;5033425;28;20527;-64
2021/11/16 08:59:40;;;;;;;6.53;4.72;;;7.70;99.90;;;;;;5033800;28;20197;-65
2021/11/16 09:02:08;;;;;;;8.33;4.93;;;7.80;99.90;;;;;;5033913;28;20174;-65
2021/11/16 09:04:36;;;;;;;18.25;6.93;;;7.70;99.90;;;;;;5033775;28;20174;-67
2021/11/16 09:07:32;;;;;;;5.28;4.25;;;7.80;99.90;;;;;;5033197;28;20250;-66
2021/11/16 09:10:06;;;;;;;9.07;5.20;;;7.80;99.90;;;;;;5016030;28;20281;-64
2021/11/16 09:12:42;;;;;;;7.60;5.13;;;7.70;99.90;;;;;;5033518;28;20173;-67
2021/11/16 09:15:13;;;;;;;9.18;4.93;;;7.80;99.90;;;;;;5033419;28;20330;-64
2021/11/16 09:17:39;;;;;;;6.97;5.70;;;7.90;99.90;;;;;;5033361;28;20182;-67
2021/11/16 09:20:26;;;;;;;7.80;6.43;;;7.90;99.90;;;;;;5033337;28;20577;-64
2021/11/16 09:22:54;;;;;;;10.45;6.68;;;7.90;99.90;;;;;;5033684;28;20170;-67
2021/11/16 09:25:31;;;;;;;6.70;4.50;;;8.00;99.90;;;;;;5033247;28;20180;-65
2021/11/16 09:28:04;;;;;;;9.20;6.40;;;7.90;99.90;;;;;;5032734;28;20332;-66
2021/11/16 09:30:56;;;;;;;9.98;7.88;;;7.90;99.90;;;;;;5032513;28;20265;-67
2021/11/16 09:33:22;;;;;;;6.95;5.35;;;7.90;99.90;;;;;;5031507;28;20500;-66
2021/11/16 09:35:58;;;;;;;6.63;4.60;;;7.90;99.90;;;;;;5033219;28;20184;-64
2021/11/16 09:38:51;;;;;;;10.65;4.13;;;8.00;99.90;;;;;;5032779;28;20197;-65
2021/11/16 09:41:40;;;;;;;10.57;6.25;;;8.00;99.90;;;;;;5033144;28;20634;-65
2021/11/16 09:44:12;;;;;;;8.20;5.10;;;8.00;99.90;;;;;;5032961;28;20196;-66
2021/11/16 09:46:46;;;;;;;6.07;5.05;;;8.00;99.90;;;;;;5032533;28;20540;-65
2021/11/16 09:49:14;;;;;;;10.68;7.60;;;8.00;99.90;;;;;;5032939;28;20573;-67
2021/11/16 09:51:41;;;;;;;6.90;5.65;;;8.00;99.90;;;;;;5033127;28;20197;-66
2021/11/16 09:54:09;;;;;;;8.93;5.18;;;8.00;99.90;;;;;;5032831;28;20243;-66
2021/11/16 09:56:36;;;;;;;7.05;5.10;;;8.00;99.90;;;;;;5032455;28;20162;-65
2021/11/16 09:59:03;;;;;;;6.72;5.03;;;8.10;99.90;;;;;;5032678;28;20304;-67
2021/11/16 10:01:36;;;;;;;7.72;4.60;;;8.10;99.90;;;;;;5014984;28;20281;-65
2021/11/16 10:04:07;;;;;;;7.50;6.03;;;8.20;99.90;;;;;;5032631;28;20178;-67
2021/11/16 10:06:35;;;;;;;7.18;4.45;;;8.20;99.90;;;;;;5032281;28;20503;-64
2021/11/16 10:09:03;;;;;;;12.23;7.97;;;8.20;99.90;;;;;;5032548;28;20198;-67
2021/11/16 10:11:29;;;;;;;8.48;5.65;;;8.20;99.90;;;;;;5032769;28;20170;-65
2021/11/16 10:13:55;;;;;;;9.30;6.00;;;8.20;99.90;;;;;;5032564;28;20166;-68
2021/11/16 10:16:21;;;;;;;10.68;6.85;;;8.20;99.90;;;;;;5032363;28;20425;-66
2021/11/16 10:18:47;;;;;;;8.70;4.57;;;8.20;99.90;;;;;;5032745;28;20268;-66
2021/11/16 10:21:14;;;;;;;7.37;4.90;;;8.10;99.90;;;;;;5032641;28;20174;-65
2021/11/16 10:23:47;;;;;;;7.50;4.10;;;8.20;99.90;;;;;;5032768;28;20687;-68
2021/11/16 10:26:14;;;;;;;8.23;5.93;;;8.20;99.90;;;;;;5032639;28;20634;-64
2021/11/16 10:28:48;;;;;;;10.70;6.00;;;8.20;99.90;;;;;;5032224;28;20293;-66
2021/11/16 10:31:25;;;;;;;7.68;5.47;;;8.20;99.90;;;;;;5032834;28;20170;-68
2021/11/16 10:33:54;;;;;;;11.43;4.85;;;8.20;99.90;;;;;;5032945;28;20177;-66
2021/11/16 10:36:21;;;;;;;6.03;4.28;;;8.20;99.90;;;;;;5032220;28;20245;-65
2021/11/16 10:38:55;;;;;;;9.65;5.10;;;8.20;99.90;;;;;;5032759;28;20197;-67
2021/11/16 10:41:27;;;;;;;8.93;5.78;;;8.20;99.90;;;;;;5031524;28;20169;-66
2021/11/16 10:43:59;;;;;;;5.43;4.03;;;8.20;99.90;;;;;;5036372;28;20180;-65
2021/11/16 10:46:29;;;;;;;8.85;5.20;;;8.10;99.90;;;;;;5034882;28;20268;-65
2021/11/16 10:48:58;;;;;;;8.02;4.93;;;8.10;99.90;;;;;;5036439;28;20209;-66
2021/11/16 10:51:31;;;;;;;7.35;5.10;;;8.10;99.90;;;;;;5036219;28;20174;-66
2021/11/16 10:53:58;;;;;;;8.05;4.15;;;8.10;99.90;;;;;;5036261;28;20630;-68
2021/11/16 10:56:31;;;;;;;8.27;5.00;;;8.10;99.90;;;;;;5035902;28;20174;-65
2021/11/16 10:59:08;;;;;;;6.28;4.28;;;8.10;99.90;;;;;;5036205;28;20194;-67
2021/11/16 11:01:45;;;;;;;7.60;3.85;;;8.10;99.90;;;;;;5018724;28;20669;-65
2021/11/16 11:04:15;;;;;;;5.80;3.65;;;8.10;99.90;;;;;;5035993;28;20752;-68
2021/11/16 11:06:44;;;;;;;4.47;3.92;;;8.10;99.90;;;;;;5035782;28;20181;-65
2021/11/16 11:09:11;;;;;;;6.80;4.32;;;8.10;99.90;;;;;;5035913;28;20283;-68
2021/11/16 11:11:41;;;;;;;9.43;4.30;;;8.10;99.90;;;;;;5036014;28;20173;-64
2021/11/16 11:14:14;;;;;;;5.32;3.88;;;8.10;99.90;;;;;;5035616;28;20180;-67
2021/11/16 11:16:59;;;;;;;7.85;4.20;;;8.00;99.90;;;;;;5035889;28;20178;-66
2021/11/16 11:19:30;;;;;;;6.50;3.58;;;8.00;99.90;;;;;;5035730;28;20667;-66
2021/11/16 11:22:09;;;;;;;5.28;3.97;;;8.10;99.90;;;;;;5035694;28;20182;-68
2021/11/16 11:24:40;;;;;;;3.25;2.92;;;8.00;99.90;;;;;;5035934;28;20169;-65
2021/11/16 11:29:54;;;;;;;4.53;3.10;;;7.80;99.90;;;;;;5035641;28;20242;-66
2021/11/16 11:32:23;;;;;;;5.70;4.03;;;7.90;99.90;;;;;;5035562;28;20169;-67
2021/11/16 11:34:52;;;;;;;8.40;5.65;;;7.90;99.90;;;;;;5035777;28;20170;-63
2021/11/16 11:37:39;;;;;;;4.28;3.35;;;7.90;99.90;;;;;;5034983;28;20174;-64
2021/11/16 11:40:13;;;;;;;4.45;3.63;;;7.90;99.90;;;;;;5035635;28;20517;-65
2021/11/16 11:42:51;;;;;;;8.85;5.07;;;7.90;99.90;;;;;;5035518;28;20170;-66
2021/11/16 11:45:27;;;;;;;6.40;4.00;;;7.80;99.90;;;;;;5035447;28;20223;-68
2021/11/16 11:48:06;;;;;;;4.85;4.18;;;7.80;99.90;;;;;;5034873;28;20216;-64
2021/11/16 11:50:59;;;;;;;7.47;4.45;;;7.80;99.90;;;;;;5035207;28;20556;-68
2021/11/16 11:53:36;;;;;;;4.63;3.20;;;7.80;99.90;;;;;;5030046;28;20178;-66
2021/11/16 11:56:06;;;;;;;6.45;5.07;;;7.80;99.90;;;;;;5035047;28;20169;-68
2021/11/16 11:58:36;;;;;;;10.38;5.65;;;7.80;99.90;;;;;;5034552;28;20673;-67
2021/11/16 12:01:10;;;;;;;9.38;4.63;;;7.80;99.90;;;;;;5035164;28;20185;-68
2021/11/16 12:03:39;;;;;;;11.20;5.30;;;7.80;99.90;;;;;;5034925;28;20252;-67
2021/11/16 12:06:05;;;;;;;9.30;3.70;;;7.80;99.90;;;;;;5034240;28;20646;-66
2021/11/16 12:08:31;;;;;;;5.90;4.72;;;7.70;99.90;;;;;;5034487;28;20274;-66
2021/11/16 12:10:57;;;;;;;4.20;3.87;;;7.70;99.90;;;;;;5033952;28;20165;-67
2021/11/16 12:13:28;;;;;;;5.90;3.93;;;7.80;99.90;;;;;;5033636;28;20240;-66
2021/11/16 12:16:20;;;;;;;5.13;3.60;;;7.80;99.90;;;;;;5034261;28;20235;-67
2021/11/16 12:18:48;;;;;;;5.60;3.90;;;7.70;99.90;;;;;;5034398;28;20688;-67
2021/11/16 12:21:38;;;;;;;5.72;4.40;;;7.70;99.90;;;;;;5034570;28;20178;-67
2021/11/16 12:24:07;;;;;;;11.77;4.53;;;7.80;99.90;;;;;;5034092;28;20174;-67
2021/11/16 12:26:36;;;;;;;5.05;3.22;;;7.90;99.90;;;;;;5034128;28;20188;-64
2021/11/16 12:29:17;;;;;;;4.78;3.80;;;7.80;99.90;;;;;;5033772;28;20216;-68
2021/11/16 12:31:46;;;;;;;8.40;3.67;;;7.90;99.90;;;;;;5034290;28;20208;-65
2021/11/16 12:34:30;;;;;;;8.50;5.50;;;7.80;99.90;;;;;;5034182;28;20534;-68
2021/11/16 12:36:55;;;;;;;7.32;3.95;;;7.80;99.90;;;;;;5033828;28;20180;-68
2021/11/16 12:39:24;;;;;;;7.27;3.80;;;7.70;99.90;;;;;;5033663;28;20186;-69
2021/11/16 12:41:52;;;;;;;5.75;3.97;;;7.80;99.90;;;;;;5014340;28;20167;-66
2021/11/16 12:44:33;;;;;;;5.38;3.45;;;7.80;99.90;;;;;;5014399;28;20185;-67
2021/11/16 12:47:05;;;;;;;10.45;4.82;;;7.80;99.90;;;;;;5015199;28;20186;-66
2021/11/16 12:49:39;;;;;;;6.72;4.25;;;7.70;99.90;;;;;;5013874;28;20248;-66
2021/11/16 12:52:14;;;;;;;7.10;3.28;;;7.70;99.90;;;;;;5014112;28;20261;-64
2021/11/16 12:54:40;;;;;;;5.68;4.18;;;7.70;99.90;;;;;;5014018;28;20197;-66
2021/11/16 12:57:26;;;;;;;5.97;3.05;;;7.70;99.90;;;;;;5014502;28;20229;-63
2021/11/16 12:59:54;;;;;;;5.43;4.43;;;7.70;99.90;;;;;;5025205;28;20296;-66
2021/11/16 13:02:36;;;;;;;9.95;5.35;;;7.60;99.90;;;;;;5046473;28;20179;-68
2021/11/16 13:05:01;;;;;;;8.18;3.90;;;7.60;99.90;;;;;;5051928;28;20242;-64
2021/11/16 13:07:34;;;;;;;6.00;3.87;;;7.60;99.90;;;;;;5033135;28;20181;-67
2021/11/16 13:10:03;;;;;;;5.75;3.63;;;7.60;99.90;;;;;;5033863;28;20535;-68
2021/11/16 13:12:52;;;;;;;6.57;3.28;;;7.60;99.90;;;;;;5032042;28;20162;-67
2021/11/16 13:15:24;;;;;;;6.35;3.72;;;7.60;99.90;;;;;;5033091;28;20588;-67
2021/11/16 13:17:59;;;;;;;4.57;3.13;;;7.60;99.90;;;;;;5033223;28;20197;-67
2021/11/16 13:20:36;;;;;;;5.40;3.70;;;7.60;99.90;;;;;;5033762;28;20255;-68
2021/11/16 13:23:07;;;;;;;5.88;3.50;;;7.60;99.90;;;;;;5033437;28;20160;-65
2021/11/16 13:25:46;;;;;;;4.63;3.08;;;7.50;99.90;;;;;;5033709;28;20595;-66
2021/11/16 13:31:07;;;;;;;6.85;3.28;;;7.50;99.90;;;;;;5033511;28;20170;-66